This is the latest recevied weather packets stored in our database for station/object KG7FOQ-13. If no packets are shown the sender has not sent any weather packets the latest 10 day(s).
| Time | Temp. | Humidity | Pressure | Rain* | Wind** | Luminosity | Snow |
|---|---|---|---|---|---|---|---|
| 1777777515 | 18.33° C | 26% | 1013.5 hPa | 0 mm | - | - | - |
| 1777777251 | 18.33° C | 23% | 1013.4 hPa | 0 mm | - | - | - |
| 1777777215 | 18.33° C | 23% | 1013.4 hPa | 0 mm | - | - | - |
| 1777776914 | 18.33° C | 24% | 1013.4 hPa | 0 mm | - | - | - |
| 1777776613 | 18.33° C | 24% | 1013.3 hPa | 0 mm | - | - | - |
| 1777776312 | 18.89° C | 25% | 1013.4 hPa | 0 mm | - | - | - |
| 1777776011 | 19.44° C | 23% | 1013.2 hPa | 0 mm | - | - | - |
| 1777775711 | 18.89° C | 22% | 1013.2 hPa | 0 mm | - | - | - |
| 1777775410 | 18.33° C | 25% | 1013.2 hPa | 0 mm | - | - | - |
| 1777775109 | 18.33° C | 26% | 1013.2 hPa | 0 mm | - | - | - |
| 1777774808 | 18.33° C | 26% | 1013.2 hPa | 0 mm | - | - | - |
| 1777774508 | 18.33° C | 26% | 1013.2 hPa | 0 mm | - | - | - |
| 1777774207 | 20° C | 21% | 1012.9 hPa | 0 mm | - | - | - |
| 1777773907 | 20° C | 19% | 1012.8 hPa | 0 mm | - | - | - |
| 1777773306 | 20.56° C | 18% | 1012.8 hPa | 0 mm | - | - | - |
| 1777773005 | 20.56° C | 18% | 1012.8 hPa | 0 mm | - | - | - |
| 1777772704 | 21.11° C | 18% | 1012.8 hPa | 0 mm | - | - | - |
| 1777772403 | 21.11° C | 15% | 1012.8 hPa | 0 mm | - | - | - |
| 1777772103 | 21.67° C | 14% | 1012.8 hPa | 0 mm | - | - | - |
| 1777771802 | 22.22° C | 13% | 1012.8 hPa | 0 mm | - | - | - |
| 1777771533 | 22.22° C | 14% | 1012.9 hPa | 0 mm | - | - | - |
| 1777771502 | 22.22° C | 14% | 1012.9 hPa | 0 mm | - | - | - |
| 1777771201 | 22.78° C | 13% | 1012.9 hPa | 0 mm | - | - | - |
| 1777770901 | 22.78° C | 14% | 1012.9 hPa | 0 mm | - | - | - |
| 1777770602 | 23.33° C | 13% | 1012.9 hPa | 0 mm | - | - | - |
* Rain latest hour (hover to see other rain measurements)
** Current wind speed in m/s (hover to see current wind gust speed)